Time;durP1;ratioP1;P1;durP2;ratioP2;P2;SDS_P1;SDS_P2;PMS_P1;PMS_P2;Temp;Humidity;BMP_temperature;BMP_pressure;BME280_temperature;BME280_humidity;BME280_pressure;Samples;Min_cycle;Max_cycle;Signal;HPM_P1;HPM_P2
2023/01/02 00:00:00;;;;;;;26.90;18.10;;;;;;;;;;5097594;28;20046;-69
2023/01/02 00:02:26;;;;;;;31.33;19.58;;;;;;;;;;5108399;28;20047;-70
2023/01/02 00:04:53;;;;;;;30.38;19.48;;;;;;;;;;5098432;28;20048;-70
2023/01/02 00:07:19;;;;;;;29.05;19.63;;;;;;;;;;5097743;28;20618;-69
2023/01/02 00:09:45;;;;;;;29.05;19.38;;;;;;;;;;5090883;28;20401;-69
2023/01/02 00:12:11;;;;;;;27.23;19.02;;;;;;;;;;5102934;28;20415;-69
2023/01/02 00:14:37;;;;;;;30.33;19.67;;;;;;;;;;5105184;27;20058;-69
2023/01/02 00:17:03;;;;;;;30.73;20.33;;;;;;;;;;5107333;28;20031;-69
2023/01/02 00:19:29;;;;;;;29.55;18.55;;;;;;;;;;5102357;28;20055;-69
2023/01/02 00:21:56;;;;;;;29.15;19.80;;;;;;;;;;5110656;28;20121;-69
2023/01/02 00:24:22;;;;;;;32.03;20.50;;;;;;;;;;5112882;27;20052;-69
2023/01/02 00:26:48;;;;;;;27.02;18.70;;;;;;;;;;5109840;28;20069;-70
2023/01/02 00:29:14;;;;;;;30.55;19.50;;;;;;;;;;5109230;28;20039;-70
2023/01/02 00:31:40;;;;;;;31.50;19.25;;;;;;;;;;5111330;28;20046;-70
2023/01/02 00:34:06;;;;;;;33.90;18.88;;;;;;;;;;5111330;27;20043;-68
2023/01/02 00:36:32;;;;;;;30.98;18.10;;;;;;;;;;5108205;28;20059;-69
2023/01/02 00:38:58;;;;;;;32.05;19.30;;;;;;;;;;5098952;28;20047;-69
2023/01/02 00:41:24;;;;;;;30.55;18.92;;;;;;;;;;5094700;28;20055;-69
2023/01/02 00:43:50;;;;;;;30.63;18.00;;;;;;;;;;5104553;28;20105;-69
2023/01/02 00:46:17;;;;;;;30.60;17.95;;;;;;;;;;5113087;28;20044;-69
2023/01/02 00:48:43;;;;;;;31.70;19.38;;;;;;;;;;5094121;28;20506;-69
2023/01/02 00:51:10;;;;;;;30.20;18.83;;;;;;;;;;5093235;28;20513;-69
2023/01/02 00:53:36;;;;;;;30.88;19.17;;;;;;;;;;5108726;28;20047;-69
2023/01/02 00:56:02;;;;;;;29.55;19.05;;;;;;;;;;5097408;28;20050;-69
2023/01/02 00:58:28;;;;;;;30.98;19.33;;;;;;;;;;5101265;28;20065;-69
2023/01/02 01:00:54;;;;;;;27.92;19.42;;;;;;;;;;5109713;28;20050;-70
2023/01/02 01:03:20;;;;;;;28.50;20.15;;;;;;;;;;5107710;28;20056;-69
2023/01/02 01:05:46;;;;;;;34.13;20.05;;;;;;;;;;5092990;28;20490;-69
2023/01/02 01:08:13;;;;;;;31.15;20.27;;;;;;;;;;5095909;28;20401;-70
2023/01/02 01:10:39;;;;;;;27.00;19.08;;;;;;;;;;5112005;28;20036;-71
2023/01/02 01:13:05;;;;;;;29.20;18.98;;;;;;;;;;5108405;27;20054;-69
2023/01/02 01:15:32;;;;;;;29.85;19.80;;;;;;;;;;5105603;27;20090;-69
2023/01/02 01:17:58;;;;;;;31.80;19.08;;;;;;;;;;5092657;28;20043;-70
2023/01/02 01:20:24;;;;;;;29.67;18.95;;;;;;;;;;5104897;28;20493;-70
2023/01/02 01:22:50;;;;;;;33.42;19.88;;;;;;;;;;5100710;28;20093;-69
2023/01/02 01:25:16;;;;;;;28.27;19.75;;;;;;;;;;5095225;28;20497;-69
2023/01/02 01:27:42;;;;;;;27.23;19.17;;;;;;;;;;5110998;28;20451;-69
2023/01/02 01:30:08;;;;;;;28.85;19.20;;;;;;;;;;5092095;28;20432;-69
2023/01/02 01:32:35;;;;;;;28.55;18.17;;;;;;;;;;5094162;28;20397;-69
2023/01/02 01:35:01;;;;;;;22.63;17.35;;;;;;;;;;5101106;28;20040;-69
2023/01/02 01:37:27;;;;;;;31.55;18.40;;;;;;;;;;5094493;28;20052;-69
2023/01/02 01:39:53;;;;;;;25.67;17.00;;;;;;;;;;5093285;28;20574;-69
2023/01/02 01:42:19;;;;;;;26.42;16.30;;;;;;;;;;5103915;28;20401;-69
2023/01/02 01:44:45;;;;;;;26.55;16.70;;;;;;;;;;5104456;27;20051;-69
2023/01/02 01:47:32;;;;;;;26.73;16.52;;;;;;;;;;5095383;28;20558;-69
2023/01/02 01:50:16;;;;;;;27.33;16.35;;;;;;;;;;5112769;28;20398;-69
2023/01/02 01:52:47;;;;;;;24.98;15.23;;;;;;;;;;5098848;28;20063;-69
2023/01/02 01:55:28;;;;;;;24.67;15.67;;;;;;;;;;5110508;28;20050;-69
2023/01/02 01:57:57;;;;;;;25.80;14.45;;;;;;;;;;5101845;28;20402;-69
2023/01/02 02:00:23;;;;;;;24.05;14.55;;;;;;;;;;5113271;28;20080;-69
2023/01/02 02:02:51;;;;;;;26.63;14.93;;;;;;;;;;5102969;28;20052;-69
2023/01/02 02:05:19;;;;;;;27.77;15.50;;;;;;;;;;5100019;28;20052;-70
2023/01/02 02:07:48;;;;;;;28.30;15.40;;;;;;;;;;5102311;28;20046;-69
2023/01/02 02:10:14;;;;;;;25.85;14.98;;;;;;;;;;5106296;28;20048;-69
2023/01/02 02:12:40;;;;;;;21.73;13.55;;;;;;;;;;5105251;28;20093;-69
2023/01/02 02:15:09;;;;;;;22.08;13.80;;;;;;;;;;5122556;28;20043;-69
2023/01/02 02:17:38;;;;;;;23.10;13.50;;;;;;;;;;5114786;28;20489;-69
2023/01/02 02:20:04;;;;;;;21.13;13.20;;;;;;;;;;5103097;28;20046;-69
2023/01/02 02:22:31;;;;;;;24.75;12.98;;;;;;;;;;5111772;28;20089;-69
2023/01/02 02:25:03;;;;;;;23.55;12.60;;;;;;;;;;5105847;28;20055;-69
2023/01/02 02:27:44;;;;;;;22.48;12.00;;;;;;;;;;5104959;28;20035;-69
2023/01/02 02:30:10;;;;;;;;;;;;;;;;;;5096461;28;20065;-69
2023/01/02 02:32:36;;;;;;;21.88;11.73;;;;;;;;;;5107464;27;19971;-69
2023/01/02 02:35:05;;;;;;;20.52;11.70;;;;;;;;;;5114306;28;20043;-69
2023/01/02 02:37:45;;;;;;;23.85;13.02;;;;;;;;;;5103501;28;20055;-70
2023/01/02 02:40:29;;;;;;;21.17;10.57;;;;;;;;;;5101829;28;20044;-69
2023/01/02 02:42:55;;;;;;;22.88;10.55;;;;;;;;;;5115015;27;20058;-69
2023/01/02 02:45:45;;;;;;;19.85;10.20;;;;;;;;;;5114411;28;20052;-69
2023/01/02 02:48:16;;;;;;;21.10;10.65;;;;;;;;;;5106629;28;20167;-69
2023/01/02 02:50:42;;;;;;;;;;;;;;;;;;5116445;28;20051;-69
2023/01/02 02:53:08;;;;;;;20.75;10.57;;;;;;;;;;5124415;27;19919;-69
2023/01/02 02:55:37;;;;;;;19.75;10.35;;;;;;;;;;5118013;27;20036;-69
2023/01/02 02:58:04;;;;;;;21.05;11.88;;;;;;;;;;5106151;28;21870;-70
2023/01/02 03:00:31;;;;;;;18.17;9.77;;;;;;;;;;5115374;28;20050;-69
2023/01/02 03:02:57;;;;;;;17.02;9.80;;;;;;;;;;5118011;27;20052;-71
2023/01/02 03:05:43;;;;;;;19.75;10.88;;;;;;;;;;5116869;27;20050;-70
2023/01/02 03:08:12;;;;;;;19.83;9.88;;;;;;;;;;5115842;28;20036;-69
2023/01/02 03:10:41;;;;;;;17.77;9.80;;;;;;;;;;5097950;28;20410;-69
2023/01/02 03:13:10;;;;;;;18.33;9.48;;;;;;;;;;5110703;27;20085;-69
2023/01/02 03:15:41;;;;;;;17.92;9.48;;;;;;;;;;5118529;27;20052;-70
2023/01/02 03:18:07;;;;;;;20.33;9.45;;;;;;;;;;5099284;27;20121;-69
2023/01/02 03:20:40;;;;;;;18.85;9.25;;;;;;;;;;5108819;28;20044;-69
2023/01/02 03:23:12;;;;;;;17.23;9.88;;;;;;;;;;5113337;28;20123;-69
2023/01/02 03:25:39;;;;;;;20.80;9.98;;;;;;;;;;5094651;28;20043;-69
2023/01/02 03:28:07;;;;;;;18.50;9.55;;;;;;;;;;5097582;28;20674;-69
2023/01/02 03:30:34;;;;;;;23.05;10.35;;;;;;;;;;5094772;28;20051;-69
2023/01/02 03:33:04;;;;;;;20.00;9.15;;;;;;;;;;5101498;28;20435;-69
2023/01/02 03:35:40;;;;;;;19.25;10.30;;;;;;;;;;5109612;28;20444;-69
2023/01/02 03:38:08;;;;;;;17.98;9.65;;;;;;;;;;5120123;27;20043;-69
2023/01/02 03:40:40;;;;;;;21.75;10.63;;;;;;;;;;5098348;27;20044;-70
2023/01/02 03:43:09;;;;;;;20.77;10.05;;;;;;;;;;5113910;27;20039;-70
2023/01/02 03:45:41;;;;;;;22.30;10.75;;;;;;;;;;5099583;27;20393;-69
2023/01/02 03:48:07;;;;;;;22.27;10.25;;;;;;;;;;5094437;28;20047;-69
2023/01/02 03:50:36;;;;;;;18.75;10.20;;;;;;;;;;5109532;28;20036;-69
2023/01/02 03:53:02;;;;;;;17.02;9.65;;;;;;;;;;5098780;28;20039;-69
2023/01/02 03:55:31;;;;;;;20.27;9.55;;;;;;;;;;5094530;28;20516;-69
2023/01/02 03:57:59;;;;;;;19.00;9.55;;;;;;;;;;5095368;28;20486;-69
2023/01/02 04:00:30;;;;;;;19.75;9.65;;;;;;;;;;5096817;28;20123;-69
2023/01/02 04:03:04;;;;;;;18.38;10.60;;;;;;;;;;5100235;28;20054;-69
2023/01/02 04:05:49;;;;;;;22.20;9.95;;;;;;;;;;5112248;28;20047;-69
2023/01/02 04:08:18;;;;;;;23.13;9.85;;;;;;;;;;5094608;28;20130;-69
2023/01/02 04:10:45;;;;;;;17.55;9.63;;;;;;;;;;5098818;28;20905;-69
2023/01/02 04:13:15;;;;;;;23.30;10.65;;;;;;;;;;5101427;28;20043;-69
2023/01/02 04:15:42;;;;;;;20.02;10.30;;;;;;;;;;5106807;28;20047;-69
2023/01/02 04:18:10;;;;;;;16.27;9.23;;;;;;;;;;5102704;28;20032;-69
2023/01/02 04:20:40;;;;;;;19.10;9.80;;;;;;;;;;5103631;28;20044;-69
2023/01/02 04:23:08;;;;;;;19.30;9.52;;;;;;;;;;5099544;28;20100;-69
2023/01/02 04:25:38;;;;;;;19.73;9.60;;;;;;;;;;5117408;27;20405;-69
2023/01/02 04:28:11;;;;;;;21.52;9.10;;;;;;;;;;5093586;27;20040;-69
2023/01/02 04:30:39;;;;;;;17.95;9.23;;;;;;;;;;5093186;28;20067;-69
2023/01/02 04:33:08;;;;;;;17.67;9.73;;;;;;;;;;5114136;28;20039;-69
2023/01/02 04:35:34;;;;;;;17.55;10.30;;;;;;;;;;5117688;27;20035;-69
2023/01/02 04:38:10;;;;;;;21.23;9.65;;;;;;;;;;5105351;28;20031;-71
2023/01/02 04:40:37;;;;;;;18.17;8.63;;;;;;;;;;5106050;28;20043;-70
2023/01/02 04:43:17;;;;;;;20.63;9.70;;;;;;;;;;5105434;28;20036;-70
2023/01/02 04:45:43;;;;;;;21.13;10.50;;;;;;;;;;5096491;28;20170;-70
2023/01/02 04:48:09;;;;;;;21.63;10.90;;;;;;;;;;5114646;27;20047;-69
2023/01/02 04:50:35;;;;;;;19.60;12.02;;;;;;;;;;5100479;28;20126;-70
2023/01/02 04:53:01;;;;;;;22.35;12.93;;;;;;;;;;5109239;27;20469;-70
2023/01/02 04:55:27;;;;;;;24.10;13.43;;;;;;;;;;5111403;27;20521;-70
2023/01/02 04:57:53;;;;;;;23.73;13.48;;;;;;;;;;5093485;28;20498;-70
2023/01/02 05:00:19;;;;;;;22.70;13.98;;;;;;;;;;5107886;27;20047;-70
2023/01/02 05:02:45;;;;;;;20.02;12.68;;;;;;;;;;5094067;28;20082;-70
2023/01/02 05:05:11;;;;;;;22.23;12.32;;;;;;;;;;5110083;28;20512;-70
2023/01/02 05:07:37;;;;;;;19.98;11.38;;;;;;;;;;5113308;28;20401;-70
2023/01/02 05:10:04;;;;;;;23.42;11.55;;;;;;;;;;5109577;28;20039;-70
2023/01/02 05:12:33;;;;;;;18.67;10.32;;;;;;;;;;5099330;28;20406;-70
2023/01/02 05:14:59;;;;;;;25.33;10.45;;;;;;;;;;5101135;28;20040;-70
2023/01/02 05:17:25;;;;;;;20.00;9.25;;;;;;;;;;5114257;28;20039;-70
2023/01/02 05:19:51;;;;;;;14.45;8.48;;;;;;;;;;5114364;27;20099;-70
2023/01/02 05:25:02;;;;;;;20.05;8.57;;;;;;;;;;5106231;28;20406;-70
2023/01/02 05:27:28;;;;;;;17.02;8.13;;;;;;;;;;5111643;28;20040;-71
2023/01/02 05:29:54;;;;;;;17.25;8.35;;;;;;;;;;5111804;28;20062;-70
2023/01/02 05:32:20;;;;;;;16.58;7.60;;;;;;;;;;5111630;28;20043;-70
2023/01/02 05:34:46;;;;;;;20.10;8.68;;;;;;;;;;5098362;28;20044;-70
2023/01/02 05:37:12;;;;;;;16.38;7.80;;;;;;;;;;5093101;28;20406;-70
2023/01/02 05:39:38;;;;;;;15.82;7.68;;;;;;;;;;5098155;28;20447;-70
2023/01/02 05:42:04;;;;;;;16.63;7.53;;;;;;;;;;5094946;28;20040;-70
2023/01/02 05:44:30;;;;;;;19.02;7.88;;;;;;;;;;5096087;28;20066;-70
2023/01/02 05:46:56;;;;;;;19.40;8.27;;;;;;;;;;5099554;28;20044;-70
2023/01/02 05:49:23;;;;;;;17.15;8.25;;;;;;;;;;5091959;28;20096;-70
2023/01/02 05:51:49;;;;;;;14.38;7.45;;;;;;;;;;5100689;28;20047;-70
2023/01/02 05:54:15;;;;;;;14.38;7.38;;;;;;;;;;5106758;28;20047;-70
2023/01/02 05:56:41;;;;;;;17.38;7.93;;;;;;;;;;5098486;28;20048;-70
2023/01/02 05:59:07;;;;;;;16.73;7.57;;;;;;;;;;5110843;28;20040;-71
2023/01/02 06:01:34;;;;;;;18.70;7.97;;;;;;;;;;5102036;28;20056;-70
2023/01/02 06:04:00;;;;;;;17.48;7.80;;;;;;;;;;5104201;28;20040;-70
2023/01/02 06:06:33;;;;;;;19.70;7.88;;;;;;;;;;5097178;28;20040;-69
2023/01/02 06:09:00;;;;;;;19.38;8.93;;;;;;;;;;5096308;28;20542;-70
2023/01/02 06:11:26;;;;;;;18.88;8.00;;;;;;;;;;5125848;27;20047;-70
2023/01/02 06:13:53;;;;;;;16.00;8.07;;;;;;;;;;5114313;28;20381;-70
2023/01/02 06:16:19;;;;;;;18.20;7.93;;;;;;;;;;5115038;28;20047;-70
2023/01/02 06:18:45;;;;;;;15.32;7.80;;;;;;;;;;5113090;28;20048;-70
2023/01/02 06:21:14;;;;;;;12.88;7.45;;;;;;;;;;5101583;28;20044;-70
2023/01/02 06:23:40;;;;;;;14.35;7.72;;;;;;;;;;5096215;28;20428;-70
2023/01/02 06:26:07;;;;;;;13.40;7.40;;;;;;;;;;5096094;28;20036;-70
2023/01/02 06:28:33;;;;;;;18.15;7.72;;;;;;;;;;5097232;28;20044;-70
2023/01/02 06:31:01;;;;;;;16.58;7.38;;;;;;;;;;5095266;28;20052;-70
2023/01/02 06:33:27;;;;;;;15.95;7.05;;;;;;;;;;5100877;28;20043;-70
2023/01/02 06:36:00;;;;;;;14.48;7.07;;;;;;;;;;5114778;28;20051;-70
2023/01/02 06:38:27;;;;;;;14.98;7.15;;;;;;;;;;5116589;28;20046;-70
2023/01/02 06:40:57;;;;;;;16.08;7.15;;;;;;;;;;5113592;28;20071;-70
2023/01/02 06:43:24;;;;;;;16.98;7.53;;;;;;;;;;5115322;27;20512;-70
2023/01/02 06:45:50;;;;;;;17.08;8.15;;;;;;;;;;5114070;28;20035;-70
2023/01/02 06:48:16;;;;;;;16.60;7.38;;;;;;;;;;5113330;28;20047;-70
2023/01/02 06:50:43;;;;;;;16.85;6.82;;;;;;;;;;5112908;27;20485;-70
2023/01/02 06:53:09;;;;;;;15.35;7.00;;;;;;;;;;5111724;27;20135;-70
2023/01/02 06:55:35;;;;;;;15.50;6.70;;;;;;;;;;5105439;28;20489;-70
2023/01/02 06:58:01;;;;;;;13.55;6.18;;;;;;;;;;5105619;27;20043;-70
2023/01/02 07:00:27;;;;;;;15.73;6.93;;;;;;;;;;5098788;28;20048;-70
2023/01/02 07:02:53;;;;;;;15.88;6.60;;;;;;;;;;5099295;28;20059;-70
2023/01/02 07:05:19;;;;;;;14.23;6.57;;;;;;;;;;5077270;28;20443;-70
2023/01/02 07:07:45;;;;;;;15.13;6.43;;;;;;;;;;5094991;28;20047;-70
2023/01/02 07:10:11;;;;;;;16.30;6.80;;;;;;;;;;5097721;28;20043;-70
2023/01/02 07:12:37;;;;;;;15.20;6.22;;;;;;;;;;5113559;28;20047;-70
2023/01/02 07:15:05;;;;;;;17.25;7.68;;;;;;;;;;5107036;28;20079;-70
2023/01/02 07:17:31;;;;;;;14.45;7.05;;;;;;;;;;5098767;28;20044;-70
2023/01/02 07:19:57;;;;;;;13.02;6.45;;;;;;;;;;5111507;28;20086;-71
2023/01/02 07:22:23;;;;;;;13.00;6.50;;;;;;;;;;5108304;28;20044;-70
2023/01/02 07:24:49;;;;;;;12.18;6.43;;;;;;;;;;5108597;28;20047;-70
2023/01/02 07:27:15;;;;;;;15.88;6.78;;;;;;;;;;5114505;28;20044;-70
2023/01/02 07:29:41;;;;;;;12.65;6.85;;;;;;;;;;5113924;28;20050;-70
2023/01/02 07:32:07;;;;;;;10.35;6.47;;;;;;;;;;5102967;27;20122;-70
2023/01/02 07:34:33;;;;;;;11.40;6.38;;;;;;;;;;5134906;27;20043;-70
2023/01/02 07:36:59;;;;;;;14.00;7.18;;;;;;;;;;5133365;27;20051;-70
2023/01/02 07:39:26;;;;;;;10.38;6.45;;;;;;;;;;5116853;27;20600;-70
2023/01/02 07:41:52;;;;;;;12.43;5.13;;;;;;;;;;5110953;27;20071;-70
2023/01/02 07:44:18;;;;;;;11.88;5.22;;;;;;;;;;5108580;28;20040;-70
2023/01/02 07:46:44;;;;;;;8.13;4.45;;;;;;;;;;5107928;28;20044;-70
2023/01/02 07:49:11;;;;;;;9.30;4.80;;;;;;;;;;5107320;28;20043;-70
2023/01/02 07:51:37;;;;;;;6.60;3.40;;;;;;;;;;5112104;27;20050;-70
2023/01/02 07:54:03;;;;;;;6.28;2.92;;;;;;;;;;5110610;27;20043;-73
2023/01/02 07:56:29;;;;;;;4.53;2.65;;;;;;;;;;5101000;28;20032;-72
2023/01/02 07:58:55;;;;;;;5.43;1.92;;;;;;;;;;5097577;27;20361;-72
2023/01/02 08:01:22;;;;;;;4.50;1.92;;;;;;;;;;5109273;28;20063;-71
2023/01/02 08:03:48;;;;;;;4.80;2.08;;;;;;;;;;5112419;28;20079;-72
2023/01/02 08:06:15;;;;;;;8.57;1.50;;;;;;;;;;5110873;27;20043;-73
2023/01/02 08:08:42;;;;;;;7.97;1.58;;;;;;;;;;5115252;27;20091;-71
2023/01/02 08:11:09;;;;;;;3.28;1.70;;;;;;;;;;5119590;27;20096;-71
2023/01/02 08:13:36;;;;;;;4.03;1.88;;;;;;;;;;5092978;28;20040;-73
2023/01/02 08:16:15;;;;;;;4.35;2.42;;;;;;;;;;5099559;28;20071;-71
2023/01/02 08:18:42;;;;;;;4.00;2.42;;;;;;;;;;5107134;28;20043;-71
2023/01/02 08:21:08;;;;;;;5.85;3.20;;;;;;;;;;5107834;27;20051;-74
2023/01/02 08:23:35;;;;;;;5.60;3.45;;;;;;;;;;5111827;27;20405;-72
2023/01/02 08:26:02;;;;;;;5.50;3.13;;;;;;;;;;5100854;27;20044;-72
2023/01/02 08:28:29;;;;;;;5.97;4.13;;;;;;;;;;5109922;27;20123;-73
2023/01/02 08:30:55;;;;;;;9.57;4.35;;;;;;;;;;5110895;28;20538;-73
2023/01/02 08:33:21;;;;;;;7.75;4.50;;;;;;;;;;5108813;28;20123;-73
2023/01/02 08:35:47;;;;;;;7.10;3.97;;;;;;;;;;5108028;28;20065;-71
2023/01/02 08:38:13;;;;;;;6.32;3.83;;;;;;;;;;5109807;28;20097;-72
2023/01/02 08:40:39;;;;;;;7.15;3.20;;;;;;;;;;5105325;28;20089;-73
2023/01/02 08:43:07;;;;;;;5.63;3.35;;;;;;;;;;5106486;28;20051;-70
2023/01/02 08:45:33;;;;;;;5.88;3.20;;;;;;;;;;5111440;28;20047;-73
2023/01/02 08:47:59;;;;;;;6.65;3.10;;;;;;;;;;5103544;28;20048;-71
2023/01/02 08:50:25;;;;;;;6.88;3.88;;;;;;;;;;5107720;27;20048;-73
2023/01/02 08:52:51;;;;;;;8.05;3.53;;;;;;;;;;5100056;28;20044;-73
2023/01/02 08:55:17;;;;;;;6.63;2.97;;;;;;;;;;5110157;28;20520;-72
2023/01/02 08:57:43;;;;;;;5.68;2.75;;;;;;;;;;5095740;27;20069;-73
2023/01/02 09:00:10;;;;;;;5.10;2.55;;;;;;;;;;5105188;28;20039;-72
2023/01/02 09:02:36;;;;;;;4.78;1.90;;;;;;;;;;5098657;27;20142;-69
2023/01/02 09:05:02;;;;;;;4.45;1.75;;;;;;;;;;5093808;28;20048;-69
2023/01/02 09:07:31;;;;;;;4.28;1.70;;;;;;;;;;5096907;27;20474;-68
2023/01/02 09:09:57;;;;;;;4.88;1.85;;;;;;;;;;5100986;27;20043;-69
2023/01/02 09:12:23;;;;;;;6.05;1.90;;;;;;;;;;5097585;28;20487;-70
2023/01/02 09:14:49;;;;;;;4.85;2.05;;;;;;;;;;5110501;28;20042;-70
2023/01/02 09:17:15;;;;;;;5.43;2.10;;;;;;;;;;5108340;28;20059;-70
2023/01/02 09:19:41;;;;;;;6.50;2.22;;;;;;;;;;5104299;28;20085;-70
2023/01/02 09:22:08;;;;;;;5.15;2.08;;;;;;;;;;5112326;27;20437;-70
2023/01/02 09:24:34;;;;;;;3.70;1.50;;;;;;;;;;5110588;28;20044;-70
2023/01/02 09:27:00;;;;;;;3.72;1.60;;;;;;;;;;5106411;28;20036;-70
2023/01/02 09:29:27;;;;;;;3.85;1.17;;;;;;;;;;5094866;28;20048;-69
2023/01/02 09:31:53;;;;;;;3.85;1.30;;;;;;;;;;5105331;28;20051;-69
2023/01/02 09:34:19;;;;;;;3.92;1.13;;;;;;;;;;5103668;27;20051;-69
2023/01/02 09:36:46;;;;;;;4.40;1.38;;;;;;;;;;5094781;28;20055;-69
2023/01/02 09:39:12;;;;;;;5.22;1.30;;;;;;;;;;5091722;28;20059;-69
2023/01/02 09:41:38;;;;;;;5.65;1.70;;;;;;;;;;5106313;28;20104;-69
2023/01/02 09:44:15;;;;;;;4.70;1.40;;;;;;;;;;5121302;27;20050;-69
2023/01/02 09:46:47;;;;;;;3.38;1.30;;;;;;;;;;5110790;28;20066;-69
2023/01/02 09:49:15;;;;;;;5.90;1.23;;;;;;;;;;5095976;28;20056;-69
2023/01/02 09:51:42;;;;;;;4.53;1.40;;;;;;;;;;5111249;28;20039;-69
2023/01/02 09:54:28;;;;;;;4.43;1.42;;;;;;;;;;5102088;28;20036;-69
2023/01/02 09:56:59;;;;;;;3.75;1.80;;;;;;;;;;5095190;28;20455;-70
2023/01/02 09:59:38;;;;;;;8.32;3.75;;;;;;;;;;5102468;28;20466;-69
2023/01/02 10:02:10;;;;;;;6.68;2.60;;;;;;;;;;5091759;28;20105;-69
2023/01/02 10:05:12;;;;;;;3.78;1.30;;;;;;;;;;5091836;28;20070;-69
2023/01/02 10:07:41;;;;;;;4.00;1.20;;;;;;;;;;5065836;28;20049;-69
2023/01/02 10:10:26;;;;;;;4.00;1.48;;;;;;;;;;5049201;28;20049;-69
2023/01/02 10:12:58;;;;;;;4.45;1.85;;;;;;;;;;5064024;28;20044;-69
2023/01/02 10:15:26;;;;;;;3.42;1.40;;;;;;;;;;5068642;28;20066;-69
2023/01/02 10:17:56;;;;;;;5.47;1.80;;;;;;;;;;5060163;28;20049;-70
2023/01/02 10:20:35;;;;;;;5.70;1.90;;;;;;;;;;5059237;28;20104;-70
2023/01/02 10:23:03;;;;;;;5.20;2.90;;;;;;;;;;5050613;28;20099;-70
2023/01/02 10:25:33;;;;;;;4.82;1.95;;;;;;;;;;5058728;28;20063;-70
2023/01/02 10:28:22;;;;;;;4.28;2.17;;;;;;;;;;5062858;28;20506;-69
2023/01/02 10:30:52;;;;;;;5.38;1.98;;;;;;;;;;5057218;28;20064;-69
2023/01/02 10:33:22;;;;;;;5.85;2.38;;;;;;;;;;5068948;28;20051;-70
2023/01/02 10:35:57;;;;;;;5.07;2.40;;;;;;;;;;5065436;28;20056;-69
2023/01/02 10:38:23;;;;;;;5.30;2.80;;;;;;;;;;5066440;28;20403;-70
2023/01/02 10:40:50;;;;;;;5.15;2.10;;;;;;;;;;5052221;28;20051;-70
2023/01/02 10:43:16;;;;;;;8.40;6.50;;;;;;;;;;5115930;27;20071;-70
2023/01/02 10:45:43;;;;;;;6.95;3.78;;;;;;;;;;5115903;28;20089;-70
2023/01/02 10:48:10;;;;;;;6.88;4.93;;;;;;;;;;5109760;28;20044;-70
2023/01/02 10:50:40;;;;;;;6.40;3.60;;;;;;;;;;5116015;28;20123;-70
2023/01/02 10:53:08;;;;;;;6.03;3.03;;;;;;;;;;5112358;28;20507;-70
2023/01/02 10:55:42;;;;;;;6.32;2.63;;;;;;;;;;5095867;28;20486;-69
2023/01/02 10:58:27;;;;;;;5.82;2.13;;;;;;;;;;5109226;27;20119;-70
2023/01/02 11:01:06;;;;;;;6.85;2.67;;;;;;;;;;5113537;27;20039;-72
2023/01/02 11:03:32;;;;;;;5.40;2.50;;;;;;;;;;5100535;28;20080;-70
2023/01/02 11:05:59;;;;;;;5.13;3.28;;;;;;;;;;5095387;28;20465;-70
2023/01/02 11:08:35;;;;;;;6.28;3.40;;;;;;;;;;5095867;28;20052;-72
2023/01/02 11:11:12;;;;;;;4.80;2.13;;;;;;;;;;5111558;27;20093;-71
2023/01/02 11:13:50;;;;;;;5.95;3.90;;;;;;;;;;5104445;28;20052;-72
2023/01/02 11:16:16;;;;;;;5.00;2.72;;;;;;;;;;5101409;28;20035;-70
2023/01/02 11:18:49;;;;;;;6.15;3.08;;;;;;;;;;5114600;28;20051;-71
2023/01/02 11:21:23;;;;;;;5.63;2.05;;;;;;;;;;5114652;28;20058;-68
2023/01/02 11:23:49;;;;;;;6.15;2.20;;;;;;;;;;5116137;27;20047;-69
2023/01/02 11:26:22;;;;;;;4.63;1.90;;;;;;;;;;5111364;27;20050;-70
2023/01/02 11:28:50;;;;;;;5.80;1.90;;;;;;;;;;5098486;28;20040;-70
2023/01/02 11:31:16;;;;;;;5.13;1.80;;;;;;;;;;5108336;27;20099;-69
2023/01/02 11:33:43;;;;;;;5.10;2.05;;;;;;;;;;5131535;27;20047;-69
2023/01/02 11:36:12;;;;;;;6.97;2.40;;;;;;;;;;5112115;27;20056;-68
2023/01/02 11:38:57;;;;;;;6.95;2.20;;;;;;;;;;5102240;27;20043;-69
2023/01/02 11:43:47;;;;;;;5.90;1.90;;;;;;;;;;5095838;27;20125;-68
2023/01/02 11:44:22;;;;;;;6.00;2.28;;;;;;;;;;5129254;27;20075;-69
2023/01/02 11:46:49;;;;;;;6.63;2.20;;;;;;;;;;5133393;27;20048;-70
2023/01/02 11:49:17;;;;;;;4.93;1.90;;;;;;;;;;5113908;27;20447;-68
2023/01/02 11:51:53;;;;;;;5.28;1.80;;;;;;;;;;5093731;27;20061;-68
2023/01/02 11:54:22;;;;;;;7.60;2.20;;;;;;;;;;5101990;27;20052;-68
2023/01/02 11:56:49;;;;;;;7.10;2.17;;;;;;;;;;5100670;28;20044;-69
2023/01/02 11:59:23;;;;;;;6.53;2.10;;;;;;;;;;5110732;27;20401;-70
2023/01/02 12:02:05;;;;;;;7.85;2.50;;;;;;;;;;5104487;27;20054;-68
2023/01/02 12:04:31;;;;;;;8.98;2.33;;;;;;;;;;5106596;28;20147;-70
2023/01/02 12:06:57;;;;;;;7.45;2.65;;;;;;;;;;5106740;28;20040;-68
2023/01/02 12:09:34;;;;;;;6.90;2.33;;;;;;;;;;5109433;28;20401;-70
2023/01/02 12:12:15;;;;;;;6.47;2.30;;;;;;;;;;5108949;28;20043;-69
2023/01/02 12:14:47;;;;;;;6.53;2.08;;;;;;;;;;5101304;28;20096;-70
2023/01/02 12:17:14;;;;;;;7.30;2.50;;;;;;;;;;5112481;27;20044;-69
2023/01/02 12:19:54;;;;;;;6.50;2.00;;;;;;;;;;5106700;27;20071;-69
2023/01/02 12:22:39;;;;;;;7.15;2.00;;;;;;;;;;5106794;27;20128;-69
2023/01/02 12:25:22;;;;;;;7.32;1.80;;;;;;;;;;5107722;27;20409;-69
2023/01/02 12:28:02;;;;;;;7.00;1.77;;;;;;;;;;5105300;27;20055;-68
2023/01/02 12:30:30;;;;;;;6.88;1.58;;;;;;;;;;5095757;28;20051;-69
2023/01/02 12:32:56;;;;;;;10.13;2.00;;;;;;;;;;5106980;28;20144;-68
2023/01/02 12:35:34;;;;;;;7.20;2.03;;;;;;;;;;5097345;28;20059;-69
2023/01/02 12:38:04;;;;;;;8.27;2.00;;;;;;;;;;5100083;27;20547;-69
2023/01/02 12:40:33;;;;;;;7.10;1.70;;;;;;;;;;5117573;27;20405;-72
2023/01/02 12:43:02;;;;;;;7.65;1.90;;;;;;;;;;5112798;27;20052;-69
2023/01/02 12:45:28;;;;;;;9.57;2.40;;;;;;;;;;5100597;28;20052;-69
2023/01/02 12:48:00;;;;;;;9.13;2.50;;;;;;;;;;5107445;28;20101;-69
2023/01/02 12:50:58;;;;;;;10.32;2.75;;;;;;;;;;5093502;28;20087;-69
2023/01/02 12:53:32;;;;;;;12.48;2.83;;;;;;;;;;5066128;28;20051;-69
2023/01/02 12:56:28;;;;;;;8.43;2.75;;;;;;;;;;5052010;28;20056;-69
2023/01/02 12:59:05;;;;;;;10.20;2.75;;;;;;;;;;5065170;28;20057;-69
2023/01/02 13:01:46;;;;;;;11.63;3.35;;;;;;;;;;5061890;28;20087;-69
2023/01/02 13:04:25;;;;;;;8.07;2.80;;;;;;;;;;5084056;28;20041;-69
2023/01/02 13:06:57;;;;;;;12.20;3.20;;;;;;;;;;5069639;28;20041;-69
2023/01/02 13:09:26;;;;;;;12.88;3.53;;;;;;;;;;5062120;28;20060;-70
2023/01/02 13:11:52;;;;;;;12.43;3.03;;;;;;;;;;5050015;28;20051;-70
2023/01/02 13:14:19;;;;;;;11.48;3.30;;;;;;;;;;5064429;28;20045;-70
2023/01/02 13:16:49;;;;;;;11.30;2.88;;;;;;;;;;5068943;28;20118;-69
2023/01/02 13:19:21;;;;;;;11.65;3.30;;;;;;;;;;5067941;28;20422;-69
2023/01/02 13:21:52;;;;;;;12.18;2.72;;;;;;;;;;5064374;28;20405;-69
2023/01/02 13:24:21;;;;;;;12.32;2.75;;;;;;;;;;5049951;28;20040;-69
2023/01/02 13:26:47;;;;;;;13.50;2.97;;;;;;;;;;5064203;28;20199;-70
2023/01/02 13:29:13;;;;;;;12.63;2.47;;;;;;;;;;5083155;28;20059;-69
2023/01/02 13:31:40;;;;;;;13.38;3.38;;;;;;;;;;5094729;28;20044;-73
2023/01/02 13:34:14;;;;;;;14.10;2.90;;;;;;;;;;5105048;28;20050;-69
2023/01/02 13:36:41;;;;;;;13.82;2.60;;;;;;;;;;5105741;28;20051;-70
2023/01/02 13:39:17;;;;;;;13.68;3.60;;;;;;;;;;5107625;28;20059;-70
2023/01/02 13:44:41;;;;;;;11.30;2.63;;;;;;;;;;5095976;28;20044;-70
2023/01/02 13:47:27;;;;;;;18.83;4.38;;;;;;;;;;5092880;28;20040;-70
2023/01/02 13:50:01;;;;;;;15.60;5.03;;;;;;;;;;5107970;28;20054;-70
2023/01/02 13:52:27;;;;;;;16.50;4.40;;;;;;;;;;5101239;28;20048;-69
2023/01/02 13:55:11;;;;;;;14.10;4.25;;;;;;;;;;5101842;28;20047;-69
2023/01/02 13:57:37;;;;;;;16.35;4.38;;;;;;;;;;5110688;28;20056;-69
2023/01/02 14:00:23;;;;;;;14.18;4.30;;;;;;;;;;5100368;28;20048;-70
2023/01/02 14:03:08;;;;;;;15.02;4.00;;;;;;;;;;5107436;28;20052;-69
2023/01/02 14:05:52;;;;;;;14.57;4.13;;;;;;;;;;5102255;28;20108;-70
2023/01/02 14:08:26;;;;;;;19.02;3.20;;;;;;;;;;5099013;28;20409;-69
2023/01/02 14:11:00;;;;;;;16.27;3.58;;;;;;;;;;5110395;28;20123;-69
2023/01/02 14:13:34;;;;;;;11.90;3.03;;;;;;;;;;5114032;28;20101;-70
2023/01/02 14:16:12;;;;;;;13.68;2.60;;;;;;;;;;5101429;28;20369;-69
2023/01/02 14:18:39;;;;;;;12.32;2.45;;;;;;;;;;5107009;27;20039;-70
2023/01/02 14:21:06;;;;;;;16.70;2.90;;;;;;;;;;5117148;27;20069;-70
2023/01/02 14:23:36;;;;;;;10.75;3.08;;;;;;;;;;5096981;27;20046;-69
2023/01/02 14:26:02;;;;;;;19.38;3.67;;;;;;;;;;5118039;27;20052;-70
2023/01/02 14:28:30;;;;;;;15.15;3.10;;;;;;;;;;5115820;28;20493;-70
2023/01/02 14:30:56;;;;;;;12.80;2.45;;;;;;;;;;5115274;28;20123;-70
2023/01/02 14:33:33;;;;;;;14.90;3.33;;;;;;;;;;5109811;27;20051;-70
2023/01/02 14:36:02;;;;;;;12.68;3.03;;;;;;;;;;5113539;28;20040;-70
2023/01/02 14:38:39;;;;;;;13.45;3.20;;;;;;;;;;5114774;28;20073;-70
2023/01/02 14:43:55;;;;;;;16.08;3.08;;;;;;;;;;5116904;27;20134;-69
2023/01/02 14:46:21;;;;;;;15.43;3.67;;;;;;;;;;5112983;28;20070;-70
2023/01/02 14:49:08;;;;;;;13.93;3.65;;;;;;;;;;5112654;28;20040;-70
2023/01/02 14:51:36;;;;;;;12.27;3.03;;;;;;;;;;5114888;28;20092;-71